KLHB

Hearne Municipal Airport

Hearne, Texas, USA
METAR KLHB 182335Z AUTO 15006KT 10SM CLR 37/18 A2988 RMK AO2 T03650179
Observed Flight Rules
Aug-18 @ 23:35 UTC (12 minutes ago) Visual Flight Rules
Wind Visibility Clouds
150° at 6 knots 10 miles
  • Clear skies
Temperatures Readings
Current 37°C / 99°F
Dewpoint 18°C / 64°F
Humidity 33%
Altimeter 29.88" Hg
Pressure 1012 hPa
Elevation 87
METAR KLHB 182335Z AUTO 15006KT 10SM CLR 37/18 A2988 RMK AO2 T03650179
Observed Flight Rules
Aug-18 @ 23:35 UTC
(12 minutes ago)
VFR
Wind Visibility
150° at 6 knots 10 miles
Clouds
  • Clear skies
Temperature Dewpoint
37°C / 99°F 18°C / 64°F
Humidity Altimeter Pressure
33% 29.88" Hg 1012 hPa